LJCE

Details ICAO LJCE
Name CERKLJE
Region Slovenia
Timezone Europe/Ljubljana (UTC+2.0)
Plans Departing 18
Arriving 11
Stats Elevation 510 ft / 155 m (AMSL)
Location 45.900415° 15.530731°
Runways 2
Magnetic Variation 3.911° E
Sunrise 2018-05-21 03:21:18 UTC / 2018-05-21 05:21:18 Local
Sunset 2018-05-21 18:30:29 UTC / 2018-05-21 20:30:29 Local
Advertisement - Login to hide

Runways

ID Width Length Bearing (true) Bearing (mag) Surface Threshold Offset Overrun Length
09 148 ft / 45 m 7,910 ft / 2,411 m 89.19° 85.28° Asphalt 0 ft / 0 m 0 ft / 0 m
09L 180 ft / 55 m 6,612 ft / 2,015 m 89.16° 85.25° Grass 0 ft / 0 m 0 ft / 0 m
27 148 ft / 45 m 7,910 ft / 2,411 m 269.21° 265.30° Asphalt 0 ft / 0 m 0 ft / 0 m
27R 180 ft / 55 m 6,612 ft / 2,015 m 269.18° 265.27° Grass 0 ft / 0 m 0 ft / 0 m

Map

Weather


0- 5 10 15 20 25 30 35+ Temperature / ° C

Clouds and Precipitation
Forecast for 2018-05-21 06:00 UTC. Updated 34 minutes ago

Ground ~20,000 ft ~40,000 ft Winds

METAR

LJCE 210330Z AUTO 25001KT 8000 NCD 11/10 Q1018

TAF

Not found

Frequencies

Ground 118.47 MHz FIS
Approach 118.75 MHz APP
Tower 119.50 MHz TWR
Warning: Do not use this data for real-world aviation or navigation. No guarantee of current accuracy is given.